sensor_id;sensor_type;location;lat;lon;timestamp;pressure;altitude;pressure_sealevel;temperature
66403;BMP180;53212;52.112;5.144;2023-05-07T00:00:32;101635.00;;;15.10
66403;BMP180;53212;52.112;5.144;2023-05-07T00:02:59;101635.80;;;15.10
66403;BMP180;53212;52.112;5.144;2023-05-07T00:05:25;101632.60;;;15.00
66403;BMP180;53212;52.112;5.144;2023-05-07T00:07:50;101635.60;;;15.00
66403;BMP180;53212;52.112;5.144;2023-05-07T00:10:18;101639.20;;;14.98
66403;BMP180;53212;52.112;5.144;2023-05-07T00:12:43;101631.40;;;14.90
66403;BMP180;53212;52.112;5.144;2023-05-07T00:15:09;101634.80;;;14.90
66403;BMP180;53212;52.112;5.144;2023-05-07T00:17:35;101631.40;;;14.86
66403;BMP180;53212;52.112;5.144;2023-05-07T00:20:01;101626.80;;;14.90
66403;BMP180;53212;52.112;5.144;2023-05-07T00:22:26;101624.80;;;14.90
66403;BMP180;53212;52.112;5.144;2023-05-07T00:24:51;101629.00;;;14.90
66403;BMP180;53212;52.112;5.144;2023-05-07T00:27:17;101629.20;;;14.90
66403;BMP180;53212;52.112;5.144;2023-05-07T00:29:42;101632.00;;;14.90
66403;BMP180;53212;52.112;5.144;2023-05-07T00:32:08;101625.60;;;14.90
66403;BMP180;53212;52.112;5.144;2023-05-07T00:34:34;101626.60;;;14.90
66403;BMP180;53212;52.112;5.144;2023-05-07T00:36:59;101629.20;;;14.86
66403;BMP180;53212;52.112;5.144;2023-05-07T00:39:24;101624.20;;;14.80
66403;BMP180;53212;52.112;5.144;2023-05-07T00:41:50;101624.00;;;14.80
66403;BMP180;53212;52.112;5.144;2023-05-07T00:44:16;101621.80;;;14.80
66403;BMP180;53212;52.112;5.144;2023-05-07T00:46:43;101619.60;;;14.80
66403;BMP180;53212;52.112;5.144;2023-05-07T00:49:10;101616.60;;;14.80
66403;BMP180;53212;52.112;5.144;2023-05-07T00:51:35;101616.20;;;14.80
66403;BMP180;53212;52.112;5.144;2023-05-07T00:54:02;101622.20;;;14.86
66403;BMP180;53212;52.112;5.144;2023-05-07T00:56:28;101615.60;;;14.86
66403;BMP180;53212;52.112;5.144;2023-05-07T00:58:54;101617.40;;;14.82
66403;BMP180;53212;52.112;5.144;2023-05-07T01:01:20;101612.40;;;14.90
66403;BMP180;53212;52.112;5.144;2023-05-07T01:03:45;101613.40;;;14.90
66403;BMP180;53212;52.112;5.144;2023-05-07T01:06:12;101615.40;;;14.90
66403;BMP180;53212;52.112;5.144;2023-05-07T01:08:39;101622.00;;;14.80
66403;BMP180;53212;52.112;5.144;2023-05-07T01:11:07;101622.20;;;14.80
66403;BMP180;53212;52.112;5.144;2023-05-07T01:13:35;101622.20;;;14.80
66403;BMP180;53212;52.112;5.144;2023-05-07T01:16:00;101618.80;;;14.80
66403;BMP180;53212;52.112;5.144;2023-05-07T01:18:26;101622.60;;;14.80
66403;BMP180;53212;52.112;5.144;2023-05-07T01:20:52;101616.60;;;14.86
66403;BMP180;53212;52.112;5.144;2023-05-07T01:23:18;101617.00;;;14.82
66403;BMP180;53212;52.112;5.144;2023-05-07T01:25:52;101616.80;;;14.86
66403;BMP180;53212;52.112;5.144;2023-05-07T01:28:18;101620.00;;;14.86
66403;BMP180;53212;52.112;5.144;2023-05-07T01:30:47;101624.60;;;14.90
66403;BMP180;53212;52.112;5.144;2023-05-07T01:33:15;101622.80;;;14.90
66403;BMP180;53212;52.112;5.144;2023-05-07T01:35:47;101619.40;;;14.90
66403;BMP180;53212;52.112;5.144;2023-05-07T01:38:13;101617.60;;;14.90
66403;BMP180;53212;52.112;5.144;2023-05-07T01:40:39;101616.60;;;15.00
66403;BMP180;53212;52.112;5.144;2023-05-07T01:43:06;101620.40;;;15.06
66403;BMP180;53212;52.112;5.144;2023-05-07T01:45:32;101619.80;;;15.02
66403;BMP180;53212;52.112;5.144;2023-05-07T01:47:58;101616.20;;;15.00
66403;BMP180;53212;52.112;5.144;2023-05-07T01:50:25;101614.00;;;15.00
66403;BMP180;53212;52.112;5.144;2023-05-07T01:52:50;101614.00;;;15.00
66403;BMP180;53212;52.112;5.144;2023-05-07T01:55:16;101602.20;;;15.00
66403;BMP180;53212;52.112;5.144;2023-05-07T01:57:41;101602.80;;;15.00
66403;BMP180;53212;52.112;5.144;2023-05-07T02:00:07;101608.40;;;15.00
66403;BMP180;53212;52.112;5.144;2023-05-07T02:02:34;101612.80;;;15.00
66403;BMP180;53212;52.112;5.144;2023-05-07T02:05:00;101610.80;;;15.00
66403;BMP180;53212;52.112;5.144;2023-05-07T02:07:27;101602.60;;;14.90
66403;BMP180;53212;52.112;5.144;2023-05-07T02:09:53;101601.00;;;14.90
66403;BMP180;53212;52.112;5.144;2023-05-07T02:12:21;101596.40;;;14.90
66403;BMP180;53212;52.112;5.144;2023-05-07T02:14:46;101595.80;;;14.90
66403;BMP180;53212;52.112;5.144;2023-05-07T02:17:12;101594.60;;;14.90
66403;BMP180;53212;52.112;5.144;2023-05-07T02:19:37;101590.80;;;14.90
66403;BMP180;53212;52.112;5.144;2023-05-07T02:22:02;101581.80;;;14.90
66403;BMP180;53212;52.112;5.144;2023-05-07T02:24:28;101586.60;;;14.86
66403;BMP180;53212;52.112;5.144;2023-05-07T02:26:53;101593.00;;;14.80
66403;BMP180;53212;52.112;5.144;2023-05-07T02:29:19;101593.80;;;14.80
66403;BMP180;53212;52.112;5.144;2023-05-07T02:31:44;101599.20;;;14.80
66403;BMP180;53212;52.112;5.144;2023-05-07T02:34:09;101598.20;;;14.80
66403;BMP180;53212;52.112;5.144;2023-05-07T02:36:35;101599.40;;;14.80
66403;BMP180;53212;52.112;5.144;2023-05-07T02:39:01;101599.20;;;14.80
66403;BMP180;53212;52.112;5.144;2023-05-07T02:41:27;101601.40;;;14.80
66403;BMP180;53212;52.112;5.144;2023-05-07T02:43:53;101603.00;;;14.80
66403;BMP180;53212;52.112;5.144;2023-05-07T02:46:19;101604.00;;;14.80
66403;BMP180;53212;52.112;5.144;2023-05-07T02:48:44;101603.20;;;14.80
66403;BMP180;53212;52.112;5.144;2023-05-07T02:51:10;101600.40;;;14.74
66403;BMP180;53212;52.112;5.144;2023-05-07T02:53:35;101606.40;;;14.70
66403;BMP180;53212;52.112;5.144;2023-05-07T02:56:01;101599.40;;;14.70
66403;BMP180;53212;52.112;5.144;2023-05-07T02:58:27;101597.20;;;14.70
66403;BMP180;53212;52.112;5.144;2023-05-07T03:00:53;101594.80;;;14.80
66403;BMP180;53212;52.112;5.144;2023-05-07T03:03:20;101589.20;;;14.80
66403;BMP180;53212;52.112;5.144;2023-05-07T03:05:46;101588.40;;;14.80
66403;BMP180;53212;52.112;5.144;2023-05-07T03:08:11;101589.80;;;14.80
66403;BMP180;53212;52.112;5.144;2023-05-07T03:10:37;101586.40;;;14.80
66403;BMP180;53212;52.112;5.144;2023-05-07T03:13:03;101581.60;;;14.80
66403;BMP180;53212;52.112;5.144;2023-05-07T03:15:29;101582.00;;;14.80
66403;BMP180;53212;52.112;5.144;2023-05-07T03:17:55;101583.80;;;14.80
66403;BMP180;53212;52.112;5.144;2023-05-07T03:20:20;101591.20;;;14.80
66403;BMP180;53212;52.112;5.144;2023-05-07T03:22:46;101588.40;;;14.70
66403;BMP180;53212;52.112;5.144;2023-05-07T03:25:12;101586.80;;;14.70
66403;BMP180;53212;52.112;5.144;2023-05-07T03:27:37;101590.00;;;14.62
66403;BMP180;53212;52.112;5.144;2023-05-07T03:30:03;101588.80;;;14.60
66403;BMP180;53212;52.112;5.144;2023-05-07T03:32:29;101591.00;;;14.60
66403;BMP180;53212;52.112;5.144;2023-05-07T03:34:55;101594.00;;;14.58
66403;BMP180;53212;52.112;5.144;2023-05-07T03:37:21;101593.60;;;14.50
66403;BMP180;53212;52.112;5.144;2023-05-07T03:39:47;101589.40;;;14.50
66403;BMP180;53212;52.112;5.144;2023-05-07T03:42:12;101587.40;;;14.50
66403;BMP180;53212;52.112;5.144;2023-05-07T03:44:37;101591.80;;;14.50
66403;BMP180;53212;52.112;5.144;2023-05-07T03:47:03;101589.20;;;14.50
66403;BMP180;53212;52.112;5.144;2023-05-07T03:49:29;101592.40;;;14.50
66403;BMP180;53212;52.112;5.144;2023-05-07T03:51:54;101592.20;;;14.50
66403;BMP180;53212;52.112;5.144;2023-05-07T03:54:20;101593.60;;;14.50
66403;BMP180;53212;52.112;5.144;2023-05-07T03:56:46;101587.40;;;14.50
66403;BMP180;53212;52.112;5.144;2023-05-07T03:59:14;101593.00;;;14.54
66403;BMP180;53212;52.112;5.144;2023-05-07T04:01:40;101591.20;;;14.60
66403;BMP180;53212;52.112;5.144;2023-05-07T04:04:05;101595.60;;;14.56
66403;BMP180;53212;52.112;5.144;2023-05-07T04:06:31;101592.20;;;14.50
66403;BMP180;53212;52.112;5.144;2023-05-07T04:08:57;101598.00;;;14.50
66403;BMP180;53212;52.112;5.144;2023-05-07T04:11:22;101598.60;;;14.50
66403;BMP180;53212;52.112;5.144;2023-05-07T04:13:48;101597.00;;;14.50
66403;BMP180;53212;52.112;5.144;2023-05-07T04:16:13;101600.60;;;14.50
66403;BMP180;53212;52.112;5.144;2023-05-07T04:18:39;101605.40;;;14.50
66403;BMP180;53212;52.112;5.144;2023-05-07T04:21:05;101608.20;;;14.50
66403;BMP180;53212;52.112;5.144;2023-05-07T04:23:30;101615.40;;;14.56
66403;BMP180;53212;52.112;5.144;2023-05-07T04:25:56;101608.40;;;14.60
66403;BMP180;53212;52.112;5.144;2023-05-07T04:28:23;101611.20;;;14.60
66403;BMP180;53212;52.112;5.144;2023-05-07T04:30:49;101615.40;;;14.60
66403;BMP180;53212;52.112;5.144;2023-05-07T04:33:15;101612.00;;;14.50
66403;BMP180;53212;52.112;5.144;2023-05-07T04:35:43;101615.20;;;14.50
66403;BMP180;53212;52.112;5.144;2023-05-07T04:38:09;101616.40;;;14.50
66403;BMP180;53212;52.112;5.144;2023-05-07T04:40:36;101615.60;;;14.50
66403;BMP180;53212;52.112;5.144;2023-05-07T04:43:01;101611.00;;;14.50
66403;BMP180;53212;52.112;5.144;2023-05-07T04:45:27;101616.20;;;14.50
66403;BMP180;53212;52.112;5.144;2023-05-07T04:47:52;101614.60;;;14.56
66403;BMP180;53212;52.112;5.144;2023-05-07T04:50:18;101614.60;;;14.60
66403;BMP180;53212;52.112;5.144;2023-05-07T04:52:45;101616.20;;;14.60
66403;BMP180;53212;52.112;5.144;2023-05-07T04:55:10;101616.80;;;14.60
66403;BMP180;53212;52.112;5.144;2023-05-07T04:57:36;101609.80;;;14.60
66403;BMP180;53212;52.112;5.144;2023-05-07T05:00:03;101614.60;;;14.70
66403;BMP180;53212;52.112;5.144;2023-05-07T05:02:29;101613.40;;;14.70
66403;BMP180;53212;52.112;5.144;2023-05-07T05:04:55;101614.20;;;14.80
66403;BMP180;53212;52.112;5.144;2023-05-07T05:07:20;101606.80;;;14.80
66403;BMP180;53212;52.112;5.144;2023-05-07T05:09:45;101609.80;;;14.82
66403;BMP180;53212;52.112;5.144;2023-05-07T05:12:11;101616.20;;;14.90
66403;BMP180;53212;52.112;5.144;2023-05-07T05:14:36;101620.00;;;14.90
66403;BMP180;53212;52.112;5.144;2023-05-07T05:17:02;101622.40;;;14.92
66403;BMP180;53212;52.112;5.144;2023-05-07T05:19:27;101625.80;;;14.90
66403;BMP180;53212;52.112;5.144;2023-05-07T05:21:52;101626.40;;;14.90
66403;BMP180;53212;52.112;5.144;2023-05-07T05:24:18;101627.20;;;14.98
66403;BMP180;53212;52.112;5.144;2023-05-07T05:26:43;101628.40;;;15.00
66403;BMP180;53212;52.112;5.144;2023-05-07T05:29:09;101630.40;;;15.00
66403;BMP180;53212;52.112;5.144;2023-05-07T05:31:35;101633.40;;;15.10
66403;BMP180;53212;52.112;5.144;2023-05-07T05:34:02;101635.60;;;15.18
66403;BMP180;53212;52.112;5.144;2023-05-07T05:36:28;101640.80;;;15.20
66403;BMP180;53212;52.112;5.144;2023-05-07T05:38:53;101645.40;;;15.30
66403;BMP180;53212;52.112;5.144;2023-05-07T05:41:19;101647.80;;;15.34
66403;BMP180;53212;52.112;5.144;2023-05-07T05:43:45;101648.40;;;15.40
66403;BMP180;53212;52.112;5.144;2023-05-07T05:46:11;101650.20;;;15.50
66403;BMP180;53212;52.112;5.144;2023-05-07T05:48:37;101649.20;;;15.50
66403;BMP180;53212;52.112;5.144;2023-05-07T05:51:02;101652.00;;;15.50
66403;BMP180;53212;52.112;5.144;2023-05-07T05:53:27;101653.80;;;15.60
66403;BMP180;53212;52.112;5.144;2023-05-07T05:55:53;101653.60;;;15.60
66403;BMP180;53212;52.112;5.144;2023-05-07T05:58:18;101654.40;;;15.60
66403;BMP180;53212;52.112;5.144;2023-05-07T06:00:46;101657.20;;;15.56
66403;BMP180;53212;52.112;5.144;2023-05-07T06:03:13;101659.80;;;15.50
66403;BMP180;53212;52.112;5.144;2023-05-07T06:05:39;101662.20;;;15.50
66403;BMP180;53212;52.112;5.144;2023-05-07T06:08:04;101659.80;;;15.52
66403;BMP180;53212;52.112;5.144;2023-05-07T06:10:30;101666.60;;;15.52
66403;BMP180;53212;52.112;5.144;2023-05-07T06:12:55;101667.80;;;15.60
66403;BMP180;53212;52.112;5.144;2023-05-07T06:15:21;101670.60;;;15.60
66403;BMP180;53212;52.112;5.144;2023-05-07T06:17:46;101668.80;;;15.60
66403;BMP180;53212;52.112;5.144;2023-05-07T06:20:12;101675.40;;;15.70
66403;BMP180;53212;52.112;5.144;2023-05-07T06:22:37;101677.80;;;15.70
66403;BMP180;53212;52.112;5.144;2023-05-07T06:25:03;101676.20;;;15.78
66403;BMP180;53212;52.112;5.144;2023-05-07T06:27:28;101672.40;;;15.80
66403;BMP180;53212;52.112;5.144;2023-05-07T06:29:54;101673.60;;;15.80
66403;BMP180;53212;52.112;5.144;2023-05-07T06:32:19;101676.00;;;15.90
66403;BMP180;53212;52.112;5.144;2023-05-07T06:34:45;101680.40;;;15.94
66403;BMP180;53212;52.112;5.144;2023-05-07T06:37:10;101679.60;;;16.00
66403;BMP180;53212;52.112;5.144;2023-05-07T06:39:36;101683.40;;;16.10
66403;BMP180;53212;52.112;5.144;2023-05-07T06:42:01;101691.00;;;16.14
66403;BMP180;53212;52.112;5.144;2023-05-07T06:44:27;101690.20;;;16.20
66403;BMP180;53212;52.112;5.144;2023-05-07T06:46:53;101688.80;;;16.28
66403;BMP180;53212;52.112;5.144;2023-05-07T06:49:18;101684.20;;;16.30
66403;BMP180;53212;52.112;5.144;2023-05-07T06:51:44;101691.80;;;16.40
66403;BMP180;53212;52.112;5.144;2023-05-07T06:54:09;101687.80;;;16.40
66403;BMP180;53212;52.112;5.144;2023-05-07T06:56:34;101689.80;;;16.40
66403;BMP180;53212;52.112;5.144;2023-05-07T06:59:02;101693.80;;;16.50
66403;BMP180;53212;52.112;5.144;2023-05-07T07:01:28;101695.40;;;16.60
66403;BMP180;53212;52.112;5.144;2023-05-07T07:03:53;101696.20;;;16.60
66403;BMP180;53212;52.112;5.144;2023-05-07T07:06:18;101691.00;;;16.70
66403;BMP180;53212;52.112;5.144;2023-05-07T07:08:44;101690.60;;;16.80
66403;BMP180;53212;52.112;5.144;2023-05-07T07:11:10;101692.60;;;16.84
66403;BMP180;53212;52.112;5.144;2023-05-07T07:13:36;101690.20;;;16.96
66403;BMP180;53212;52.112;5.144;2023-05-07T07:16:01;101688.40;;;17.12
66403;BMP180;53212;52.112;5.144;2023-05-07T07:18:27;101687.80;;;17.30
66403;BMP180;53212;52.112;5.144;2023-05-07T07:20:52;101689.00;;;17.50
66403;BMP180;53212;52.112;5.144;2023-05-07T07:23:18;101689.00;;;17.70
66403;BMP180;53212;52.112;5.144;2023-05-07T07:25:43;101686.80;;;17.80
66403;BMP180;53212;52.112;5.144;2023-05-07T07:28:09;101687.80;;;17.90
66403;BMP180;53212;52.112;5.144;2023-05-07T07:30:36;101686.80;;;18.00
66403;BMP180;53212;52.112;5.144;2023-05-07T07:33:01;101684.20;;;18.00
66403;BMP180;53212;52.112;5.144;2023-05-07T07:35:32;101690.80;;;18.10
66403;BMP180;53212;52.112;5.144;2023-05-07T07:37:57;101692.40;;;18.24
66403;BMP180;53212;52.112;5.144;2023-05-07T07:40:24;101695.00;;;18.40
66403;BMP180;53212;52.112;5.144;2023-05-07T07:42:50;101704.00;;;18.58
66403;BMP180;53212;52.112;5.144;2023-05-07T07:45:16;101705.80;;;18.70
66403;BMP180;53212;52.112;5.144;2023-05-07T07:47:42;101709.20;;;18.70
66403;BMP180;53212;52.112;5.144;2023-05-07T07:50:08;101706.20;;;18.80
66403;BMP180;53212;52.112;5.144;2023-05-07T07:52:34;101702.40;;;18.90
66403;BMP180;53212;52.112;5.144;2023-05-07T07:55:00;101701.40;;;19.00
66403;BMP180;53212;52.112;5.144;2023-05-07T07:57:25;101701.00;;;18.98
66403;BMP180;53212;52.112;5.144;2023-05-07T07:59:51;101699.40;;;18.90
66403;BMP180;53212;52.112;5.144;2023-05-07T08:02:17;101701.80;;;18.90
66403;BMP180;53212;52.112;5.144;2023-05-07T08:04:42;101695.00;;;18.90
66403;BMP180;53212;52.112;5.144;2023-05-07T08:07:11;101696.80;;;18.90
66403;BMP180;53212;52.112;5.144;2023-05-07T08:09:40;101703.80;;;19.00
66403;BMP180;53212;52.112;5.144;2023-05-07T08:12:06;101697.40;;;19.00
66403;BMP180;53212;52.112;5.144;2023-05-07T08:14:33;101692.80;;;19.10
66403;BMP180;53212;52.112;5.144;2023-05-07T08:16:59;101696.40;;;19.10
66403;BMP180;53212;52.112;5.144;2023-05-07T08:19:24;101690.60;;;19.10
66403;BMP180;53212;52.112;5.144;2023-05-07T08:21:50;101692.80;;;19.20
66403;BMP180;53212;52.112;5.144;2023-05-07T08:24:16;101695.80;;;19.20
66403;BMP180;53212;52.112;5.144;2023-05-07T08:26:42;101697.80;;;19.20
66403;BMP180;53212;52.112;5.144;2023-05-07T08:29:08;101700.00;;;19.20
66403;BMP180;53212;52.112;5.144;2023-05-07T08:31:33;101702.80;;;19.20
66403;BMP180;53212;52.112;5.144;2023-05-07T08:33:59;101706.20;;;19.30
66403;BMP180;53212;52.112;5.144;2023-05-07T08:36:25;101705.00;;;19.30
66403;BMP180;53212;52.112;5.144;2023-05-07T08:38:52;101709.60;;;19.30
66403;BMP180;53212;52.112;5.144;2023-05-07T08:41:18;101715.40;;;19.30
66403;BMP180;53212;52.112;5.144;2023-05-07T08:43:48;101716.00;;;19.36
66403;BMP180;53212;52.112;5.144;2023-05-07T08:46:21;101711.00;;;19.50
66403;BMP180;53212;52.112;5.144;2023-05-07T08:48:51;101711.60;;;19.70
66403;BMP180;53212;52.112;5.144;2023-05-07T08:51:20;101715.80;;;19.80
66403;BMP180;53212;52.112;5.144;2023-05-07T08:53:48;101717.00;;;20.00
66403;BMP180;53212;52.112;5.144;2023-05-07T08:56:17;101723.40;;;20.10
66403;BMP180;53212;52.112;5.144;2023-05-07T08:58:44;101722.80;;;20.20
66403;BMP180;53212;52.112;5.144;2023-05-07T09:01:15;101717.80;;;20.20
66403;BMP180;53212;52.112;5.144;2023-05-07T09:03:44;101719.60;;;20.30
66403;BMP180;53212;52.112;5.144;2023-05-07T09:06:10;101722.80;;;20.20
66403;BMP180;53212;52.112;5.144;2023-05-07T09:08:36;101719.20;;;20.20
66403;BMP180;53212;52.112;5.144;2023-05-07T09:11:02;101725.20;;;20.00
66403;BMP180;53212;52.112;5.144;2023-05-07T09:13:28;101723.20;;;19.90
66403;BMP180;53212;52.112;5.144;2023-05-07T09:15:54;101721.00;;;19.80
66403;BMP180;53212;52.112;5.144;2023-05-07T09:18:20;101722.20;;;19.82
66403;BMP180;53212;52.112;5.144;2023-05-07T09:20:45;101722.40;;;19.90
66403;BMP180;53212;52.112;5.144;2023-05-07T09:23:11;101728.60;;;20.06
66403;BMP180;53212;52.112;5.144;2023-05-07T09:25:36;101729.00;;;20.24
66403;BMP180;53212;52.112;5.144;2023-05-07T09:28:04;101729.80;;;20.30
66403;BMP180;53212;52.112;5.144;2023-05-07T09:30:31;101726.80;;;20.40
66403;BMP180;53212;52.112;5.144;2023-05-07T09:33:02;101729.20;;;20.50
66403;BMP180;53212;52.112;5.144;2023-05-07T09:35:30;101728.20;;;20.40
66403;BMP180;53212;52.112;5.144;2023-05-07T09:37:57;101725.00;;;20.30
66403;BMP180;53212;52.112;5.144;2023-05-07T09:40:26;101727.60;;;20.32
66403;BMP180;53212;52.112;5.144;2023-05-07T09:42:52;101726.60;;;20.30
66403;BMP180;53212;52.112;5.144;2023-05-07T09:45:26;101725.80;;;20.30
66403;BMP180;53212;52.112;5.144;2023-05-07T09:47:55;101729.00;;;20.30
66403;BMP180;53212;52.112;5.144;2023-05-07T09:50:35;101727.40;;;20.30
66403;BMP180;53212;52.112;5.144;2023-05-07T09:53:03;101729.00;;;20.30
66403;BMP180;53212;52.112;5.144;2023-05-07T09:55:29;101727.60;;;20.40
66403;BMP180;53212;52.112;5.144;2023-05-07T09:57:55;101734.40;;;20.50
66403;BMP180;53212;52.112;5.144;2023-05-07T10:00:21;101739.00;;;20.60
66403;BMP180;53212;52.112;5.144;2023-05-07T10:02:50;101741.80;;;20.80
66403;BMP180;53212;52.112;5.144;2023-05-07T10:05:18;101742.60;;;21.08
66403;BMP180;53212;52.112;5.144;2023-05-07T10:07:46;101738.80;;;21.30
66403;BMP180;53212;52.112;5.144;2023-05-07T10:10:12;101738.40;;;21.50
66403;BMP180;53212;52.112;5.144;2023-05-07T10:12:38;101735.80;;;21.60
66403;BMP180;53212;52.112;5.144;2023-05-07T10:15:10;101736.80;;;21.60
66403;BMP180;53212;52.112;5.144;2023-05-07T10:17:37;101732.60;;;21.70
66403;BMP180;53212;52.112;5.144;2023-05-07T10:20:05;101737.60;;;21.80
66403;BMP180;53212;52.112;5.144;2023-05-07T10:22:45;101738.40;;;21.80
66403;BMP180;53212;52.112;5.144;2023-05-07T10:25:17;101735.80;;;21.90
66403;BMP180;53212;52.112;5.144;2023-05-07T10:27:45;101735.60;;;22.02
66403;BMP180;53212;52.112;5.144;2023-05-07T10:30:45;101738.20;;;22.30
66403;BMP180;53212;52.112;5.144;2023-05-07T10:33:13;101732.80;;;22.44
66403;BMP180;53212;52.112;5.144;2023-05-07T10:35:42;101734.00;;;22.40
66403;BMP180;53212;52.112;5.144;2023-05-07T10:38:09;101732.60;;;22.40
66403;BMP180;53212;52.112;5.144;2023-05-07T10:40:35;101733.40;;;22.50
66403;BMP180;53212;52.112;5.144;2023-05-07T10:43:04;101740.80;;;22.40
66403;BMP180;53212;52.112;5.144;2023-05-07T10:45:31;101746.40;;;22.40
66403;BMP180;53212;52.112;5.144;2023-05-07T10:48:13;101749.00;;;22.30
66403;BMP180;53212;52.112;5.144;2023-05-07T10:50:43;101745.20;;;22.30
66403;BMP180;53212;52.112;5.144;2023-05-07T10:55:50;101737.40;;;22.40
66403;BMP180;53212;52.112;5.144;2023-05-07T11:00:50;101746.20;;;22.40
66403;BMP180;53212;52.112;5.144;2023-05-07T11:03:16;101745.00;;;22.40
66403;BMP180;53212;52.112;5.144;2023-05-07T11:05:42;101744.40;;;22.48
66403;BMP180;53212;52.112;5.144;2023-05-07T11:08:09;101747.40;;;22.50
66403;BMP180;53212;52.112;5.144;2023-05-07T11:10:48;101752.20;;;22.70
66403;BMP180;53212;52.112;5.144;2023-05-07T11:13:14;101753.60;;;23.02
66403;BMP180;53212;52.112;5.144;2023-05-07T11:15:49;101749.40;;;23.36
66403;BMP180;53212;52.112;5.144;2023-05-07T11:18:17;101745.40;;;23.68
66403;BMP180;53212;52.112;5.144;2023-05-07T11:20:59;101750.20;;;23.90
66403;BMP180;53212;52.112;5.144;2023-05-07T11:26:00;101750.60;;;24.40
66403;BMP180;53212;52.112;5.144;2023-05-07T11:28:28;101752.00;;;24.50
66403;BMP180;53212;52.112;5.144;2023-05-07T11:30:54;101750.80;;;24.40
66403;BMP180;53212;52.112;5.144;2023-05-07T11:33:20;101752.20;;;24.40
66403;BMP180;53212;52.112;5.144;2023-05-07T11:35:45;101748.80;;;24.40
66403;BMP180;53212;52.112;5.144;2023-05-07T11:38:12;101749.00;;;24.60
66403;BMP180;53212;52.112;5.144;2023-05-07T11:41:07;101749.00;;;24.70
66403;BMP180;53212;52.112;5.144;2023-05-07T11:43:34;101751.60;;;24.76
66403;BMP180;53212;52.112;5.144;2023-05-07T11:46:12;101747.20;;;24.90
66403;BMP180;53212;52.112;5.144;2023-05-07T11:48:38;101746.00;;;24.82
66403;BMP180;53212;52.112;5.144;2023-05-07T11:51:06;101746.60;;;24.70
66403;BMP180;53212;52.112;5.144;2023-05-07T11:53:40;101748.20;;;24.72
66403;BMP180;53212;52.112;5.144;2023-05-07T11:56:10;101748.20;;;24.80
66403;BMP180;53212;52.112;5.144;2023-05-07T11:58:36;101748.80;;;24.80
66403;BMP180;53212;52.112;5.144;2023-05-07T12:01:02;101751.80;;;24.80
66403;BMP180;53212;52.112;5.144;2023-05-07T12:03:28;101751.80;;;24.80
66403;BMP180;53212;52.112;5.144;2023-05-07T12:05:53;101756.20;;;24.70
66403;BMP180;53212;52.112;5.144;2023-05-07T12:08:20;101758.20;;;24.70
66403;BMP180;53212;52.112;5.144;2023-05-07T12:10:49;101753.40;;;24.60
66403;BMP180;53212;52.112;5.144;2023-05-07T12:13:19;101751.40;;;24.50
66403;BMP180;53212;52.112;5.144;2023-05-07T12:15:45;101758.00;;;24.40
66403;BMP180;53212;52.112;5.144;2023-05-07T12:18:12;101755.40;;;24.36
66403;BMP180;53212;52.112;5.144;2023-05-07T12:20:38;101751.00;;;24.44
66403;BMP180;53212;52.112;5.144;2023-05-07T12:23:04;101749.80;;;24.50
66403;BMP180;53212;52.112;5.144;2023-05-07T12:25:41;101757.20;;;24.60
66403;BMP180;53212;52.112;5.144;2023-05-07T12:28:16;101754.60;;;24.80
66403;BMP180;53212;52.112;5.144;2023-05-07T12:30:43;101750.80;;;24.80
66403;BMP180;53212;52.112;5.144;2023-05-07T12:33:09;101752.60;;;24.82
66403;BMP180;53212;52.112;5.144;2023-05-07T12:35:42;101753.00;;;25.00
66403;BMP180;53212;52.112;5.144;2023-05-07T12:38:17;101754.20;;;24.90
66403;BMP180;53212;52.112;5.144;2023-05-07T12:40:45;101754.20;;;24.70
66403;BMP180;53212;52.112;5.144;2023-05-07T12:43:27;101754.20;;;24.70
66403;BMP180;53212;52.112;5.144;2023-05-07T12:46:07;101751.60;;;24.70
66403;BMP180;53212;52.112;5.144;2023-05-07T12:48:36;101754.80;;;24.88
66403;BMP180;53212;52.112;5.144;2023-05-07T12:51:01;101755.60;;;24.96
66403;BMP180;53212;52.112;5.144;2023-05-07T12:53:28;101757.00;;;25.10
66403;BMP180;53212;52.112;5.144;2023-05-07T12:55:56;101764.20;;;25.28
66403;BMP180;53212;52.112;5.144;2023-05-07T12:58:30;101761.40;;;25.36
66403;BMP180;53212;52.112;5.144;2023-05-07T13:00:58;101766.20;;;25.46
66403;BMP180;53212;52.112;5.144;2023-05-07T13:03:35;101762.40;;;25.40
66403;BMP180;53212;52.112;5.144;2023-05-07T13:06:09;101766.20;;;25.30
66403;BMP180;53212;52.112;5.144;2023-05-07T13:08:41;101770.80;;;25.10
66403;BMP180;53212;52.112;5.144;2023-05-07T13:11:09;101772.80;;;25.00
66403;BMP180;53212;52.112;5.144;2023-05-07T13:13:37;101768.20;;;24.90
66403;BMP180;53212;52.112;5.144;2023-05-07T13:16:03;101768.40;;;24.80
66403;BMP180;53212;52.112;5.144;2023-05-07T13:18:30;101767.40;;;24.80
66403;BMP180;53212;52.112;5.144;2023-05-07T13:20:56;101769.60;;;24.90
66403;BMP180;53212;52.112;5.144;2023-05-07T13:23:22;101771.40;;;25.00
66403;BMP180;53212;52.112;5.144;2023-05-07T13:25:49;101773.00;;;25.20
66403;BMP180;53212;52.112;5.144;2023-05-07T13:28:14;101769.20;;;25.40
66403;BMP180;53212;52.112;5.144;2023-05-07T13:30:40;101770.80;;;25.60
66403;BMP180;53212;52.112;5.144;2023-05-07T13:33:06;101771.40;;;25.88
66403;BMP180;53212;52.112;5.144;2023-05-07T13:35:32;101769.80;;;26.10
66403;BMP180;53212;52.112;5.144;2023-05-07T13:37:58;101766.80;;;26.30
66403;BMP180;53212;52.112;5.144;2023-05-07T13:40:23;101764.20;;;26.50
66403;BMP180;53212;52.112;5.144;2023-05-07T13:42:49;101765.00;;;26.70
66403;BMP180;53212;52.112;5.144;2023-05-07T13:45:17;101762.20;;;26.64
66403;BMP180;53212;52.112;5.144;2023-05-07T13:47:43;101763.00;;;26.52
66403;BMP180;53212;52.112;5.144;2023-05-07T13:50:10;101768.20;;;26.50
66403;BMP180;53212;52.112;5.144;2023-05-07T13:52:37;101766.80;;;26.52
66403;BMP180;53212;52.112;5.144;2023-05-07T13:55:04;101764.40;;;26.50
66403;BMP180;53212;52.112;5.144;2023-05-07T13:57:29;101763.60;;;26.50
66403;BMP180;53212;52.112;5.144;2023-05-07T13:59:55;101770.20;;;26.46
66403;BMP180;53212;52.112;5.144;2023-05-07T14:02:21;101768.00;;;26.20